createdAt,value
2023-02-23T00:00:02.190Z,5.82
2023-02-23T00:01:01.715Z,5.82
2023-02-23T00:02:02.189Z,5.84
2023-02-23T00:03:01.843Z,5.83
2023-02-23T00:04:02.118Z,5.82
2023-02-23T00:05:03.224Z,5.84
2023-02-23T00:06:02.031Z,5.84
2023-02-23T00:07:03.228Z,5.82
2023-02-23T00:08:02.051Z,5.8
2023-02-23T00:09:01.496Z,5.82
2023-02-23T00:10:01.990Z,5.85
2023-02-23T00:11:01.483Z,5.87
2023-02-23T00:12:01.958Z,5.89
2023-02-23T00:13:01.386Z,5.86
2023-02-23T00:14:01.879Z,5.82
2023-02-23T00:15:01.331Z,5.8
2023-02-23T00:16:01.792Z,5.79
2023-02-23T00:18:01.792Z,5.78
2023-02-23T00:19:03.945Z,5.79
2023-02-23T00:20:01.818Z,5.79
2023-02-23T00:21:02.274Z,5.77
2023-02-23T00:22:03.379Z,5.75
2023-02-23T00:23:02.192Z,5.74
2023-02-23T00:24:01.708Z,5.71
2023-02-23T00:25:03.898Z,5.71
2023-02-23T00:26:03.301Z,5.72
2023-02-23T00:27:03.824Z,5.72
2023-02-23T00:28:01.572Z,5.72
2023-02-23T00:29:02.039Z,5.71
2023-02-23T00:30:01.569Z,5.7
2023-02-23T00:31:02.124Z,5.74
2023-02-23T00:32:03.266Z,5.76
2023-02-23T00:33:01.954Z,5.78
2023-02-23T00:34:01.482Z,5.8
2023-02-23T00:35:01.957Z,5.81
2023-02-23T00:36:01.410Z,5.81
2023-02-23T00:37:01.877Z,5.83
2023-02-23T00:38:01.396Z,5.87
2023-02-23T00:39:03.550Z,5.98
2023-02-23T00:40:02.983Z,6.05
2023-02-23T00:41:01.812Z,6.07
2023-02-23T00:43:01.829Z,6.14
2023-02-23T00:44:02.272Z,6.2
2023-02-23T00:45:01.804Z,6.21
2023-02-23T00:46:02.366Z,6.21
2023-02-23T00:47:03.396Z,6.21
2023-02-23T00:48:02.204Z,6.21
2023-02-23T00:49:01.801Z,6.22
2023-02-23T00:50:02.286Z,6.26
2023-02-23T00:51:01.737Z,6.28
2023-02-23T00:52:02.211Z,6.29
2023-02-23T00:53:03.330Z,6.33
2023-02-23T00:54:02.119Z,6.33
2023-02-23T00:55:01.647Z,6.33
2023-02-23T00:56:02.119Z,6.3
2023-02-23T00:57:01.561Z,6.28
2023-02-23T00:58:02.044Z,6.26
2023-02-23T00:59:01.571Z,6.24
2023-02-23T01:00:02.053Z,6.21
2023-02-23T01:01:01.536Z,6.2
2023-02-23T01:02:03.684Z,6.17
2023-02-23T01:03:03.068Z,6.17
2023-02-23T01:04:01.960Z,6.19
2023-02-23T01:05:01.399Z,6.2
2023-02-23T01:06:01.879Z,6.2
2023-02-23T01:07:03.093Z,6.21
2023-02-23T01:08:01.795Z,6.22
2023-02-23T01:09:02.274Z,6.22
2023-02-23T01:10:03.466Z,6.24
2023-02-23T01:11:02.279Z,6.25
2023-02-23T01:12:01.762Z,6.25
2023-02-23T01:13:02.219Z,6.24
2023-02-23T01:14:01.716Z,6.23
2023-02-23T01:15:02.201Z,6.23
2023-02-23T01:16:01.730Z,6.24
2023-02-23T01:17:02.108Z,6.25
2023-02-23T01:18:03.256Z,6.25
2023-02-23T01:19:02.110Z,6.24
2023-02-23T01:20:01.560Z,6.22
2023-02-23T01:21:03.709Z,6.21
2023-02-23T01:22:01.553Z,6.21
2023-02-23T01:23:02.042Z,6.2
2023-02-23T01:24:01.485Z,6.2
2023-02-23T01:25:01.949Z,6.2
2023-02-23T01:26:01.466Z,6.2
2023-02-23T01:27:01.968Z,6.21
2023-02-23T01:28:01.396Z,6.2
2023-02-23T01:29:01.954Z,6.2
2023-02-23T01:30:01.409Z,6.2
2023-02-23T01:31:01.963Z,6.21
2023-02-23T01:32:03.398Z,6.21
2023-02-23T01:33:01.860Z,6.21
2023-02-23T01:34:02.998Z,6.2
2023-02-23T01:35:01.810Z,6.19
2023-02-23T01:37:01.798Z,6.17
2023-02-23T01:38:02.271Z,6.2
2023-02-23T01:39:01.715Z,6.2
2023-02-23T01:40:03.875Z,6.2
2023-02-23T01:41:01.725Z,6.2
2023-02-23T01:42:03.861Z,6.2
2023-02-23T01:43:01.633Z,6.2
2023-02-23T01:44:02.116Z,6.19
2023-02-23T01:45:01.638Z,6.19
2023-02-23T01:46:02.153Z,6.19
2023-02-23T01:47:01.556Z,6.17
2023-02-23T01:48:01.391Z,6.17
2023-02-23T01:49:03.554Z,6.17
2023-02-23T01:50:02.983Z,6.16
2023-02-23T01:51:01.821Z,6.16
2023-02-23T01:52:02.271Z,6.19
2023-02-23T01:53:01.728Z,6.21
2023-02-23T01:54:03.875Z,6.27
2023-02-23T01:55:01.721Z,6.3
2023-02-23T01:56:02.211Z,6.31
2023-02-23T01:57:01.634Z,6.3
2023-02-23T01:58:03.791Z,6.29
2023-02-23T01:59:01.549Z,6.29
2023-02-23T02:00:03.711Z,6.29
2023-02-23T02:01:01.566Z,6.29
2023-02-23T02:02:02.060Z,6.29
2023-02-23T02:03:03.224Z,6.28
2023-02-23T02:04:02.044Z,6.27
2023-02-23T02:05:01.478Z,6.27
2023-02-23T02:06:03.635Z,6.25
2023-02-23T02:07:03.106Z,6.24
2023-02-23T02:08:01.874Z,6.25
2023-02-23T02:09:01.388Z,6.24
2023-02-23T02:10:01.881Z,6.22
2023-02-23T02:11:01.316Z,6.2
2023-02-23T02:12:01.792Z,6.2
2023-02-23T02:14:01.827Z,6.16
2023-02-23T02:15:02.277Z,6.14
2023-02-23T02:16:03.468Z,6.13
2023-02-23T02:17:02.211Z,6.14
2023-02-23T02:18:03.437Z,6.14
2023-02-23T02:19:02.222Z,6.13
2023-02-23T02:20:01.631Z,6.11
2023-02-23T02:21:02.113Z,6.1
2023-02-23T02:22:01.629Z,6.08
2023-02-23T02:23:02.120Z,6.08
2023-02-23T02:24:01.571Z,6.05
2023-02-23T02:25:02.083Z,6.04
2023-02-23T02:26:03.240Z,6.07
2023-02-23T02:27:02.047Z,6.08
2023-02-23T02:28:03.147Z,6.09
2023-02-23T02:29:01.971Z,6.1
2023-02-23T02:30:01.476Z,6.1
2023-02-23T02:31:02.070Z,6.1
2023-02-23T02:32:01.531Z,6.11
2023-02-23T02:33:01.909Z,6.13
2023-02-23T02:34:01.391Z,6.15
2023-02-23T02:35:01.891Z,6.16
2023-02-23T02:36:01.306Z,6.2
2023-02-23T02:37:01.795Z,6.27
2023-02-23T02:38:02.299Z,6.3
2023-02-23T02:39:01.797Z,6.34
2023-02-23T02:40:02.273Z,6.35
2023-02-23T02:41:01.715Z,6.36
2023-02-23T02:42:02.189Z,6.37
2023-02-23T02:43:01.735Z,6.37
2023-02-23T02:44:02.218Z,6.37
2023-02-23T02:45:01.622Z,6.37
2023-02-23T02:46:02.194Z,6.36
2023-02-23T02:47:01.641Z,6.36
2023-02-23T02:48:03.266Z,6.4
2023-02-23T02:49:03.548Z,6.42
2023-02-23T02:51:01.795Z,6.42
2023-02-23T02:52:02.274Z,6.41
2023-02-23T02:53:01.796Z,6.4
2023-02-23T02:54:02.285Z,6.38
2023-02-23T02:55:01.726Z,6.38
2023-02-23T02:56:02.205Z,6.37
2023-02-23T02:57:01.708Z,6.35
2023-02-23T02:58:02.209Z,6.34
2023-02-23T02:59:01.670Z,6.31
2023-02-23T03:00:03.797Z,6.3
2023-02-23T03:01:03.238Z,6.28
2023-02-23T03:02:03.714Z,6.27
2023-02-23T03:03:01.543Z,6.27
2023-02-23T03:04:02.052Z,6.27
2023-02-23T03:05:01.599Z,6.27
2023-02-23T03:06:02.040Z,6.27
2023-02-23T03:07:01.489Z,6.27
2023-02-23T03:08:01.959Z,6.28
2023-02-23T03:09:03.083Z,6.27
2023-02-23T03:10:01.883Z,6.26
2023-02-23T03:11:03.072Z,6.26
2023-02-23T03:12:01.881Z,6.26
2023-02-23T03:13:01.487Z,6.27
2023-02-23T03:14:01.876Z,6.27
2023-02-23T03:15:01.430Z,6.27
2023-02-23T03:16:01.863Z,6.27
2023-02-23T03:18:01.790Z,6.27
2023-02-23T03:19:02.292Z,6.28
2023-02-23T03:20:01.743Z,6.29
2023-02-23T03:21:03.958Z,6.33
2023-02-23T03:22:03.392Z,6.35
2023-02-23T03:23:02.215Z,6.35
2023-02-23T03:24:03.065Z,6.34
2023-02-23T03:25:03.905Z,6.31
2023-02-23T03:26:01.644Z,6.3
2023-02-23T03:27:02.204Z,6.29
2023-02-23T03:28:01.663Z,6.27
2023-02-23T03:29:02.154Z,6.26
2023-02-23T03:30:01.684Z,6.26
2023-02-23T03:31:03.738Z,6.25
2023-02-23T03:32:03.325Z,6.25
2023-02-23T03:33:02.041Z,6.21
2023-02-23T03:34:01.521Z,6.2
2023-02-23T03:35:02.057Z,6.2
2023-02-23T03:36:01.492Z,6.19
2023-02-23T03:37:01.988Z,6.17
2023-02-23T03:38:03.094Z,6.17
2023-02-23T03:39:01.973Z,6.17
2023-02-23T03:40:01.418Z,6.17
2023-02-23T03:41:03.560Z,6.15
2023-02-23T03:42:01.433Z,6.14
2023-02-23T03:43:01.894Z,6.13
2023-02-23T03:44:01.337Z,6.11
2023-02-23T03:45:03.488Z,6.1
2023-02-23T03:46:02.360Z,6.09
2023-02-23T03:47:02.771Z,6.09
2023-02-23T03:48:01.498Z,6.09
2023-02-23T03:49:01.995Z,6.12
2023-02-23T03:50:01.505Z,6.13
2023-02-23T03:51:01.980Z,6.12
2023-02-23T03:52:01.426Z,6.1
2023-02-23T03:53:01.882Z,6.08
2023-02-23T03:54:03.085Z,6.07
2023-02-23T03:55:03.559Z,6.06
2023-02-23T03:56:01.324Z,6.05
2023-02-23T03:57:01.817Z,6.04
2023-02-23T03:58:02.311Z,6.04
2023-02-23T03:59:01.803Z,6.05
2023-02-23T04:00:02.276Z,6.05
2023-02-23T04:01:03.399Z,6.04
2023-02-23T04:02:02.256Z,6.02
2023-02-23T04:03:03.413Z,5.98
2023-02-23T04:04:02.200Z,5.97
2023-02-23T04:05:01.627Z,5.97
2023-02-23T04:06:02.129Z,5.96
2023-02-23T04:07:01.646Z,5.95
2023-02-23T04:08:03.801Z,5.95
2023-02-23T04:09:03.234Z,5.93
2023-02-23T04:10:02.052Z,5.92
2023-02-23T04:11:01.474Z,5.87
2023-02-23T04:12:01.960Z,5.86
2023-02-23T04:13:03.184Z,5.84
2023-02-23T04:14:01.984Z,5.84
2023-02-23T04:15:01.468Z,5.82
2023-02-23T04:16:01.962Z,5.8
2023-02-23T04:17:03.083Z,5.78
2023-02-23T04:18:03.577Z,5.76
2023-02-23T04:19:01.399Z,5.76
2023-02-23T04:20:01.879Z,5.75
2023-02-23T04:21:01.343Z,5.72
2023-02-23T04:22:01.785Z,5.69
2023-02-23T04:23:02.288Z,5.66
2023-02-23T04:24:01.821Z,5.65
2023-02-23T04:25:03.968Z,5.65
2023-02-23T04:26:01.725Z,5.63
2023-02-23T04:27:02.195Z,5.62
2023-02-23T04:28:03.387Z,5.6
2023-02-23T04:29:02.218Z,5.6
2023-02-23T04:30:01.653Z,5.57
2023-02-23T04:31:02.217Z,5.56
2023-02-23T04:32:01.825Z,5.55
2023-02-23T04:33:03.796Z,5.55
2023-02-23T04:34:01.571Z,5.55
2023-02-23T04:35:02.036Z,5.55
2023-02-23T04:36:01.560Z,5.52
2023-02-23T04:37:02.034Z,5.51
2023-02-23T04:38:01.488Z,5.5
2023-02-23T04:39:01.973Z,5.51
2023-02-23T04:40:03.090Z,5.52
2023-02-23T04:41:03.649Z,5.52
2023-02-23T04:42:01.390Z,5.53
2023-02-23T04:43:01.884Z,5.54
2023-02-23T04:44:01.351Z,5.54
2023-02-23T04:45:03.471Z,5.54
2023-02-23T04:46:01.320Z,5.55
2023-02-23T04:47:01.807Z,5.55
2023-02-23T04:48:02.999Z,5.55
2023-02-23T04:49:01.801Z,5.55
2023-02-23T04:50:02.274Z,5.55
2023-02-23T04:51:01.799Z,5.55
2023-02-23T04:52:02.302Z,5.56
2023-02-23T04:53:03.386Z,5.56
2023-02-23T04:54:03.885Z,5.56
2023-02-23T04:55:01.719Z,5.56
2023-02-23T04:56:02.189Z,5.57
2023-02-23T04:57:01.676Z,5.59
2023-02-23T04:58:02.120Z,5.59
2023-02-23T04:59:01.650Z,5.6
2023-02-23T05:00:03.788Z,5.62
2023-02-23T05:01:01.570Z,5.63
2023-02-23T05:02:02.105Z,5.64
2023-02-23T05:03:01.608Z,5.65
2023-02-23T05:04:02.036Z,5.67
2023-02-23T05:05:01.544Z,5.68
2023-02-23T05:06:01.961Z,5.68
2023-02-23T05:07:01.491Z,5.69
2023-02-23T05:08:01.961Z,5.72
2023-02-23T05:09:01.485Z,5.76
2023-02-23T05:10:03.645Z,5.8
2023-02-23T05:11:01.397Z,5.84
2023-02-23T05:12:01.941Z,5.86
2023-02-23T05:13:01.439Z,5.89
2023-02-23T05:14:01.903Z,5.9
2023-02-23T05:15:01.395Z,5.92
2023-02-23T05:16:01.927Z,5.93
2023-02-23T05:17:03.007Z,5.94
2023-02-23T05:18:01.802Z,5.95
2023-02-23T05:19:03.964Z,5.95
2023-02-23T05:20:01.816Z,5.96
2023-02-23T05:21:02.284Z,5.96
2023-02-23T05:22:01.718Z,5.98
2023-02-23T05:23:02.219Z,5.99
2023-02-23T05:24:01.716Z,6
2023-02-23T05:25:02.221Z,6.01
2023-02-23T05:26:01.637Z,6.02
2023-02-23T05:27:02.121Z,6.04
2023-02-23T05:28:01.663Z,6.06
2023-02-23T05:29:02.141Z,6.08
2023-02-23T05:30:01.665Z,6.09
2023-02-23T05:31:02.259Z,6.11
2023-02-23T05:32:01.710Z,6.13
2023-02-23T05:33:02.093Z,6.13
2023-02-23T05:34:01.566Z,6.15
2023-02-23T05:35:02.035Z,6.16
2023-02-23T05:36:01.479Z,6.17
2023-02-23T05:37:02.080Z,6.19
2023-02-23T05:38:03.158Z,6.19
2023-02-23T05:39:01.958Z,6.19
2023-02-23T05:40:03.089Z,6.19
2023-02-23T05:41:03.563Z,6.2
2023-02-23T05:42:01.430Z,6.2
2023-02-23T05:43:01.875Z,6.2
2023-02-23T05:44:03.092Z,6.2
2023-02-23T05:45:01.879Z,6.21
2023-02-23T05:46:01.379Z,6.24
2023-02-23T05:47:01.910Z,6.27
2023-02-23T05:49:01.804Z,6.36
2023-02-23T05:50:02.306Z,6.39
2023-02-23T05:51:01.721Z,6.38
2023-02-23T05:52:02.263Z,6.39
2023-02-23T05:53:03.398Z,6.41
2023-02-23T05:54:02.205Z,6.41
2023-02-23T05:55:03.363Z,6.42
2023-02-23T05:56:03.804Z,6.42
2023-02-23T05:57:03.349Z,6.42
2023-02-23T05:58:02.125Z,6.41
2023-02-23T05:59:01.566Z,6.41
2023-02-23T06:00:03.716Z,6.4
2023-02-23T06:01:01.575Z,6.4
2023-02-23T06:02:01.964Z,6.39
2023-02-23T06:03:01.501Z,6.38
2023-02-23T06:04:02.765Z,6.37
2023-02-23T06:05:01.516Z,6.36
2023-02-23T06:06:01.963Z,6.35
2023-02-23T06:07:01.410Z,6.34
2023-02-23T06:08:01.898Z,6.33
2023-02-23T06:09:03.023Z,6.31
2023-02-23T06:10:01.797Z,6.3
2023-02-23T06:12:01.808Z,6.28
2023-02-23T06:13:03.972Z,6.29
2023-02-23T06:14:01.782Z,6.3
2023-02-23T06:15:02.271Z,6.33
2023-02-23T06:16:03.509Z,6.37
2023-02-23T06:17:02.266Z,6.4
2023-02-23T06:18:01.736Z,6.43
2023-02-23T06:19:02.136Z,6.46
2023-02-23T06:20:03.324Z,6.49
2023-02-23T06:21:03.803Z,6.5
2023-02-23T06:22:01.590Z,6.52
2023-02-23T06:23:02.045Z,6.53
2023-02-23T06:24:01.491Z,6.56
2023-02-23T06:25:01.961Z,6.56
2023-02-23T06:26:01.483Z,6.57
2023-02-23T06:27:01.970Z,6.58
2023-02-23T06:28:01.512Z,6.58
2023-02-23T06:29:03.556Z,6.59
2023-02-23T06:30:01.411Z,6.6
2023-02-23T06:31:02.034Z,6.6
2023-02-23T06:32:03.132Z,6.6
2023-02-23T06:33:01.827Z,6.61
2023-02-23T06:34:02.276Z,6.65
2023-02-23T06:35:03.477Z,6.66
2023-02-23T06:36:02.276Z,6.69
2023-02-23T06:37:01.726Z,6.71
2023-02-23T06:38:03.901Z,6.73
2023-02-23T06:39:01.719Z,6.75
2023-02-23T06:40:02.215Z,6.79
2023-02-23T06:41:01.724Z,6.81
2023-02-23T06:42:02.132Z,6.83
2023-02-23T06:43:01.671Z,6.84
2023-02-23T06:44:03.808Z,6.85
2023-02-23T06:45:02.533Z,6.86
2023-02-23T06:46:02.294Z,6.87
2023-02-23T06:47:01.745Z,6.88
2023-02-23T06:48:02.197Z,6.89
2023-02-23T06:49:01.647Z,6.9
2023-02-23T06:50:02.207Z,6.91
2023-02-23T06:51:01.687Z,6.93
2023-02-23T06:52:03.820Z,6.96
2023-02-23T06:53:01.582Z,6.97
2023-02-23T06:54:02.050Z,6.99
2023-02-23T06:55:01.562Z,6.99
2023-02-23T06:56:02.042Z,7.01
2023-02-23T06:57:03.171Z,7.03
2023-02-23T06:58:02.150Z,7.04
2023-02-23T06:59:01.481Z,7.04
2023-02-23T07:00:02.102Z,7.05
2023-02-23T07:01:01.413Z,7.05
2023-02-23T07:02:01.935Z,7.07
2023-02-23T07:03:03.082Z,7.07
2023-02-23T07:04:01.960Z,7.08
2023-02-23T07:05:01.344Z,7.08
2023-02-23T07:06:01.881Z,7.09
2023-02-23T07:07:01.324Z,7.1
2023-02-23T07:08:01.821Z,7.12
2023-02-23T07:09:03.963Z,7.12
2023-02-23T07:10:01.814Z,7.13
2023-02-23T07:11:03.953Z,7.14
2023-02-23T07:12:01.711Z,7.15
2023-02-23T07:13:02.200Z,7.16
2023-02-23T07:14:01.745Z,7.18
2023-02-23T07:15:02.238Z,7.18
2023-02-23T07:16:01.743Z,7.2
2023-02-23T07:17:02.137Z,7.22
2023-02-23T07:18:03.329Z,7.23
2023-02-23T07:19:02.124Z,7.24
2023-02-23T07:20:01.605Z,7.25
2023-02-23T07:21:03.717Z,7.28
2023-02-23T07:22:03.236Z,7.29
2023-02-23T07:23:02.038Z,7.3
2023-02-23T07:24:01.480Z,7.31
2023-02-23T07:25:02.040Z,7.33
2023-02-23T07:26:01.499Z,7.35
2023-02-23T07:27:01.967Z,7.38
2023-02-23T07:28:01.508Z,7.4
2023-02-23T07:29:01.988Z,7.43
2023-02-23T07:30:03.081Z,7.44
2023-02-23T07:31:02.072Z,7.46
2023-02-23T07:32:01.503Z,7.48
2023-02-23T07:33:01.884Z,7.5
2023-02-23T07:34:01.399Z,7.53
2023-02-23T07:35:01.887Z,7.55
2023-02-23T07:36:01.345Z,7.56
2023-02-23T07:37:01.806Z,7.58
2023-02-23T07:38:02.290Z,7.59
2023-02-23T07:39:01.794Z,7.61
2023-02-23T07:40:02.285Z,7.63
2023-02-23T07:41:01.751Z,7.64
2023-02-23T07:42:04.059Z,7.67
2023-02-23T07:43:01.725Z,7.68
2023-02-23T07:44:01.591Z,7.69
2023-02-23T07:45:02.034Z,7.69
2023-02-23T07:46:03.214Z,7.72
2023-02-23T07:47:02.092Z,7.74
2023-02-23T07:48:01.488Z,7.75
2023-02-23T07:49:01.976Z,7.76
2023-02-23T07:50:01.412Z,7.78
2023-02-23T07:51:03.560Z,7.81
2023-02-23T07:52:01.340Z,7.82
2023-02-23T07:53:01.801Z,7.84
2023-02-23T07:54:02.300Z,7.87
2023-02-23T07:55:01.790Z,7.89
2023-02-23T07:56:02.284Z,7.9
2023-02-23T07:57:03.395Z,7.91
2023-02-23T07:58:02.207Z,7.92
2023-02-23T07:59:01.658Z,7.96
2023-02-23T08:00:02.133Z,7.97
2023-02-23T08:01:01.659Z,7.98
2023-02-23T08:02:02.120Z,7.98
2023-02-23T08:03:01.560Z,8
2023-02-23T08:04:02.093Z,8.02
2023-02-23T08:05:01.601Z,8.04
2023-02-23T08:06:02.079Z,8.05
2023-02-23T08:07:01.484Z,8.07
2023-02-23T08:08:01.981Z,8.09
2023-02-23T08:09:01.390Z,8.13
2023-02-23T08:10:01.965Z,8.14
2023-02-23T08:11:01.403Z,8.15
2023-02-23T08:12:01.875Z,8.17
2023-02-23T08:13:03.110Z,8.19
2023-02-23T08:14:01.879Z,8.22
2023-02-23T08:15:01.335Z,8.24
2023-02-23T08:16:01.793Z,8.27
2023-02-23T08:17:02.371Z,8.29
2023-02-23T08:18:01.800Z,8.32
2023-02-23T08:19:03.867Z,8.36
2023-02-23T08:20:01.729Z,8.39
2023-02-23T08:21:03.883Z,8.44
2023-02-23T08:22:01.715Z,8.47
2023-02-23T08:23:02.220Z,8.5
2023-02-23T08:24:01.671Z,8.53
2023-02-23T08:25:02.120Z,8.56
2023-02-23T08:26:03.310Z,8.56
2023-02-23T08:27:02.121Z,8.57
2023-02-23T08:28:03.678Z,8.6
2023-02-23T08:29:02.065Z,8.64
2023-02-23T08:30:03.215Z,8.65
2023-02-23T08:31:03.717Z,8.68
2023-02-23T08:32:01.869Z,8.73
2023-02-23T08:33:01.965Z,8.76
2023-02-23T08:34:01.426Z,8.78
2023-02-23T08:35:01.912Z,8.8
2023-02-23T08:36:01.403Z,8.81
2023-02-23T08:37:01.907Z,8.83
2023-02-23T08:38:03.019Z,8.86
2023-02-23T08:39:01.848Z,8.9
2023-02-23T08:40:02.317Z,8.92
2023-02-23T08:41:03.389Z,8.94
2023-02-23T08:42:03.956Z,8.94
2023-02-23T08:43:01.720Z,8.94
2023-02-23T08:44:02.195Z,8.94
2023-02-23T08:45:01.769Z,8.95
2023-02-23T08:46:03.925Z,9
2023-02-23T08:47:01.640Z,9.01
2023-02-23T08:48:02.147Z,9.04
2023-02-23T08:49:01.638Z,9.06
2023-02-23T08:50:02.136Z,9.08
2023-02-23T08:51:01.550Z,9.1
2023-02-23T08:52:02.033Z,9.15
2023-02-23T08:53:01.474Z,9.17
2023-02-23T08:54:03.637Z,9.2
2023-02-23T08:55:03.167Z,9.23
2023-02-23T08:56:03.631Z,9.29
2023-02-23T08:57:03.073Z,9.32
2023-02-23T08:58:01.867Z,9.36
2023-02-23T08:59:01.398Z,9.4
2023-02-23T09:00:01.897Z,9.42
2023-02-23T09:01:01.341Z,9.46
2023-02-23T09:02:01.799Z,9.48
2023-02-23T09:03:02.272Z,9.51
2023-02-23T09:04:01.794Z,9.54
2023-02-23T09:05:02.373Z,9.57
2023-02-23T09:06:01.702Z,9.6
2023-02-23T09:07:03.868Z,9.64
2023-02-23T09:08:01.710Z,9.65
2023-02-23T09:09:03.872Z,9.67
2023-02-23T09:10:01.663Z,9.69
2023-02-23T09:11:02.116Z,9.74
2023-02-23T09:12:01.629Z,9.77
2023-02-23T09:13:03.797Z,9.81
2023-02-23T09:14:01.549Z,9.84
2023-02-23T09:15:02.134Z,9.88
2023-02-23T09:16:03.277Z,9.91
2023-02-23T09:17:02.021Z,9.93
2023-02-23T09:18:01.546Z,9.95
2023-02-23T09:19:02.031Z,9.95
2023-02-23T09:20:03.148Z,9.98
2023-02-23T09:21:01.968Z,9.99
2023-02-23T09:22:01.763Z,10.01
2023-02-23T09:23:01.956Z,10.04
2023-02-23T09:24:01.393Z,10.07
2023-02-23T09:25:01.879Z,10.09
2023-02-23T09:26:01.417Z,10.1
2023-02-23T09:27:03.576Z,10.12
2023-02-23T09:28:01.309Z,10.14
2023-02-23T09:29:01.814Z,10.18
2023-02-23T09:30:03.957Z,10.21
2023-02-23T09:31:01.901Z,10.22
2023-02-23T09:32:02.390Z,10.24
2023-02-23T09:33:03.398Z,10.27
2023-02-23T09:34:02.187Z,10.31
2023-02-23T09:35:01.729Z,10.35
2023-02-23T09:36:03.877Z,10.4
2023-02-23T09:37:01.659Z,10.43
2023-02-23T09:38:02.110Z,10.45
2023-02-23T09:39:01.638Z,10.49
2023-02-23T09:40:02.120Z,10.52
2023-02-23T09:41:03.331Z,10.57
2023-02-23T09:42:02.139Z,10.58
2023-02-23T09:43:03.237Z,10.59
2023-02-23T09:44:03.811Z,10.63
2023-02-23T09:45:03.231Z,10.64
2023-02-23T09:46:02.075Z,10.64
2023-02-23T09:47:01.580Z,10.66
2023-02-23T09:48:02.041Z,10.67
2023-02-23T09:49:03.160Z,10.68
2023-02-23T09:50:01.949Z,10.69
2023-02-23T09:51:03.146Z,10.72
2023-02-23T09:52:01.975Z,10.77
2023-02-23T09:53:01.912Z,10.78
2023-02-23T09:54:01.888Z,10.8
2023-02-23T09:55:01.433Z,10.83
2023-02-23T09:56:03.564Z,10.84
2023-02-23T09:57:01.321Z,10.84
2023-02-23T09:58:01.829Z,10.84
2023-02-23T09:59:02.279Z,10.84
2023-02-23T10:00:01.796Z,10.86
2023-02-23T10:01:02.306Z,10.86
2023-02-23T10:02:03.399Z,10.85
2023-02-23T10:03:02.200Z,10.88
2023-02-23T10:04:01.714Z,10.89
2023-02-23T10:05:02.309Z,10.88
2023-02-23T10:06:01.644Z,10.88
2023-02-23T10:07:02.121Z,10.9
2023-02-23T10:08:01.649Z,10.92
2023-02-23T10:09:02.112Z,10.93
2023-02-23T10:10:01.805Z,10.94
2023-02-23T10:11:02.051Z,10.94
2023-02-23T10:12:01.566Z,10.93
2023-02-23T10:13:02.053Z,10.94
2023-02-23T10:14:01.496Z,10.95
2023-02-23T10:15:01.989Z,10.95
2023-02-23T10:16:01.497Z,10.95
2023-02-23T10:17:01.986Z,10.93
2023-02-23T10:18:03.195Z,10.93
2023-02-23T10:19:01.901Z,10.96
2023-02-23T10:20:03.063Z,11
2023-02-23T10:21:01.814Z,11.05
2023-02-23T10:23:01.809Z,11.15
2023-02-23T10:24:03.973Z,11.22
2023-02-23T10:25:01.812Z,11.25
2023-02-23T10:26:02.333Z,11.3
2023-02-23T10:27:01.733Z,11.36
2023-02-23T10:28:02.211Z,11.33
2023-02-23T10:29:01.719Z,11.3
2023-02-23T10:30:02.232Z,11.28
2023-02-23T10:31:01.841Z,11.29
2023-02-23T10:32:02.277Z,11.29
2023-02-23T10:33:01.574Z,11.3
2023-02-23T10:34:02.098Z,11.3
2023-02-23T10:35:01.590Z,11.3
2023-02-23T10:36:12.963Z,11.3
2023-02-23T10:37:03.168Z,11.3
2023-02-23T10:38:03.661Z,11.32
2023-02-23T10:39:01.397Z,11.33
2023-02-23T10:40:01.884Z,11.32
2023-02-23T10:41:01.424Z,11.33
2023-02-23T10:42:02.818Z,11.37
2023-02-23T10:43:01.573Z,11.4
2023-02-23T10:44:15.953Z,11.43
2023-02-23T10:45:01.547Z,11.45
2023-02-23T10:46:01.968Z,11.45
2023-02-23T10:47:03.181Z,11.42
2023-02-23T10:48:02.031Z,11.4
2023-02-23T10:49:01.413Z,11.39
2023-02-23T10:50:01.912Z,11.41
2023-02-23T10:51:01.411Z,11.43
2023-02-23T10:52:01.916Z,11.45
2023-02-23T10:53:01.335Z,11.47
2023-02-23T10:54:08.027Z,11.48
2023-02-23T10:55:03.971Z,11.49
2023-02-23T10:56:03.515Z,11.52
2023-02-23T10:57:02.301Z,11.54
2023-02-23T10:58:03.431Z,11.54
2023-02-23T10:59:02.245Z,11.53
2023-02-23T11:00:01.725Z,11.53
2023-02-23T11:01:02.238Z,11.55
2023-02-23T11:02:02.830Z,11.57
2023-02-23T11:03:03.820Z,11.58
2023-02-23T11:04:06.145Z,11.57
2023-02-23T11:05:03.795Z,11.58
2023-02-23T11:06:01.585Z,11.61
2023-02-23T11:07:02.073Z,11.62
2023-02-23T11:08:01.575Z,11.63
2023-02-23T11:09:02.542Z,11.67
2023-02-23T11:10:01.507Z,11.68
2023-02-23T11:11:01.978Z,11.68
2023-02-23T11:12:01.673Z,11.69
2023-02-23T11:13:02.011Z,11.7
2023-02-23T11:14:01.494Z,11.7
2023-02-23T11:15:01.987Z,11.7
2023-02-23T11:16:03.155Z,11.69
2023-02-23T11:17:03.559Z,11.7
2023-02-23T11:18:01.418Z,11.74
2023-02-23T11:19:01.882Z,11.76
2023-02-23T11:20:01.402Z,11.78
2023-02-23T11:21:01.882Z,11.79
2023-02-23T11:22:02.998Z,11.79
2023-02-23T11:23:14.060Z,11.79
2023-02-23T11:24:02.279Z,11.81
2023-02-23T11:25:01.798Z,11.82
2023-02-23T11:26:02.281Z,11.82
2023-02-23T11:27:03.408Z,11.85
2023-02-23T11:28:03.885Z,11.86
2023-02-23T11:29:01.738Z,11.88
2023-02-23T11:30:02.190Z,11.88
2023-02-23T11:31:01.798Z,11.91
2023-02-23T11:32:05.270Z,11.96
2023-02-23T11:33:01.636Z,11.99
2023-02-23T11:34:02.122Z,12.04
2023-02-23T11:35:01.629Z,12.06
2023-02-23T11:36:02.114Z,12.07
2023-02-23T11:37:01.572Z,12.06
2023-02-23T11:38:03.024Z,12.08
2023-02-23T11:39:01.537Z,12.08
2023-02-23T11:40:02.031Z,12.08
2023-02-23T11:41:01.887Z,12.08
2023-02-23T11:42:01.330Z,12.1
2023-02-23T11:43:03.500Z,12.15
2023-02-23T11:44:04.256Z,12.15
2023-02-23T11:45:01.790Z,12.16
2023-02-23T11:46:02.327Z,12.19
2023-02-23T11:47:01.770Z,12.22
2023-02-23T11:48:02.206Z,12.27
2023-02-23T11:49:03.418Z,12.29
2023-02-23T11:50:03.795Z,12.33
2023-02-23T11:51:01.628Z,12.36
2023-02-23T11:52:02.107Z,12.36
2023-02-23T11:53:03.228Z,12.38
2023-02-23T11:54:03.181Z,12.42
2023-02-23T11:55:01.569Z,12.42
2023-02-23T11:56:02.039Z,12.45
2023-02-23T11:57:01.475Z,12.51
2023-02-23T11:58:01.956Z,12.59
2023-02-23T11:59:01.474Z,12.6
2023-02-23T12:00:01.982Z,12.65
2023-02-23T12:01:01.399Z,12.69
2023-02-23T12:02:01.867Z,12.69
2023-02-23T12:03:01.463Z,12.72
2023-02-23T12:04:01.891Z,12.78
2023-02-23T12:05:01.632Z,12.81
2023-02-23T12:06:01.854Z,12.87
2023-02-23T12:08:03.497Z,12.95
2023-02-23T12:09:02.292Z,13
2023-02-23T12:10:01.734Z,13.03
2023-02-23T12:11:03.910Z,13.12
2023-02-23T12:12:01.722Z,13.21
2023-02-23T12:13:02.218Z,13.23
2023-02-23T12:14:01.622Z,13.24
2023-02-23T12:15:02.114Z,13.27
2023-02-23T12:16:01.747Z,13.29
2023-02-23T12:17:03.663Z,13.35
2023-02-23T12:18:03.228Z,13.44
2023-02-23T12:19:02.030Z,13.51
2023-02-23T12:20:01.568Z,13.54
2023-02-23T12:21:02.022Z,13.53
2023-02-23T12:22:01.494Z,13.47
2023-02-23T12:23:01.949Z,13.45
2023-02-23T12:24:01.471Z,13.49
2023-02-23T12:25:01.948Z,13.54
2023-02-23T12:26:01.391Z,13.6
2023-02-23T12:27:01.913Z,13.61
2023-02-23T12:28:13.571Z,13.59
2023-02-23T12:29:03.565Z,13.62
2023-02-23T12:30:01.311Z,13.64
2023-02-23T12:31:01.827Z,13.66
2023-02-23T12:32:02.374Z,13.69
2023-02-23T12:33:03.465Z,13.71
2023-02-23T12:34:02.269Z,13.71
2023-02-23T12:35:01.749Z,13.75
2023-02-23T12:36:02.198Z,13.78
2023-02-23T12:37:03.390Z,13.82
2023-02-23T12:38:02.188Z,13.81
2023-02-23T12:39:02.654Z,13.81
2023-02-23T12:40:02.300Z,13.79
2023-02-23T12:41:01.796Z,13.78
2023-02-23T12:42:02.270Z,13.78
2023-02-23T12:43:01.715Z,13.75
2023-02-23T12:44:02.194Z,13.68
2023-02-23T12:45:01.793Z,13.66
2023-02-23T12:46:02.328Z,13.69
2023-02-23T12:47:01.638Z,13.76
2023-02-23T12:48:02.122Z,13.8
2023-02-23T12:49:01.662Z,13.83
2023-02-23T12:50:02.142Z,13.85
2023-02-23T12:51:03.246Z,13.84
2023-02-23T12:52:02.033Z,13.81
2023-02-23T12:53:01.575Z,13.82
2023-02-23T12:54:02.032Z,13.82
2023-02-23T12:55:01.499Z,13.81
2023-02-23T12:56:03.633Z,13.81
2023-02-23T12:57:03.624Z,13.82
2023-02-23T12:58:01.953Z,13.83
2023-02-23T12:59:01.396Z,13.83
2023-02-23T13:00:01.918Z,13.82
2023-02-23T13:01:01.442Z,13.76
2023-02-23T13:02:03.651Z,13.75
2023-02-23T13:03:01.307Z,13.78
2023-02-23T13:04:01.809Z,13.81
2023-02-23T13:05:02.333Z,13.82
2023-02-23T13:06:01.715Z,13.82
2023-02-23T13:07:05.004Z,13.82
2023-02-23T13:08:12.767Z,13.8
2023-02-23T13:09:02.214Z,13.78
2023-02-23T13:10:01.670Z,13.75
2023-02-23T13:11:03.811Z,13.68
2023-02-23T13:12:01.564Z,13.61
2023-02-23T13:13:04.871Z,13.56
2023-02-23T13:14:03.270Z,13.58
2023-02-23T13:15:02.052Z,13.56
2023-02-23T13:16:01.488Z,13.52
2023-02-23T13:17:02.005Z,13.51
2023-02-23T13:18:01.485Z,13.55
2023-02-23T13:19:04.534Z,13.58
2023-02-23T13:20:01.404Z,13.56
2023-02-23T13:21:01.958Z,13.52
2023-02-23T13:22:01.404Z,13.49
2023-02-23T13:23:03.563Z,13.46
2023-02-23T13:24:01.360Z,13.43